Terminal Aerodrome Forecast
Issued by NWS

Home | Current Version | Previous Version | Text Only | Print | Product List | Glossary On
Versions: 1 2 3 4 5 6 7 8 9 10 11 12 13 14 15 16 17 18 19 20 21 22
161
FTUS43 KILX 262340
TAFCMI
TAF
KCMI 262340Z 2700/2724 18009KT P6SM SCT250
     FM270600 17007KT P6SM SCT025 BKN150
     FM271100 15006KT P6SM VCTS SCT025 BKN060CB
     FM271300 15009KT 3SM -TSRA BR BKN035CB
     FM271600 17012KT 6SM -SHRA BR OVC045
     FM272000 18014KT P6SM VCTS SCT025CB BKN050=

USA.gov is the U.S. government's official web portal to all federal, state and local government web resources and services.